sensor_id;sensor_type;location;lat;lon;timestamp;P1;durP1;ratioP1;P2;durP2;ratioP2
32323;SDS011;25666;44.350;9.222;2024-03-08T00:00:10;15.35;;;5.32;;
32323;SDS011;25666;44.350;9.222;2024-03-08T00:02:40;10.55;;;6.20;;
32323;SDS011;25666;44.350;9.222;2024-03-08T00:05:07;13.50;;;5.38;;
32323;SDS011;25666;44.350;9.222;2024-03-08T00:07:43;13.50;;;5.30;;
32323;SDS011;25666;44.350;9.222;2024-03-08T00:10:09;9.13;;;4.85;;
32323;SDS011;25666;44.350;9.222;2024-03-08T00:12:42;12.82;;;5.68;;
32323;SDS011;25666;44.350;9.222;2024-03-08T00:15:09;11.90;;;5.47;;
32323;SDS011;25666;44.350;9.222;2024-03-08T00:17:43;12.07;;;5.38;;
32323;SDS011;25666;44.350;9.222;2024-03-08T00:20:09;13.02;;;7.30;;
32323;SDS011;25666;44.350;9.222;2024-03-08T00:22:38;12.90;;;6.85;;
32323;SDS011;25666;44.350;9.222;2024-03-08T00:25:04;8.55;;;5.03;;
32323;SDS011;25666;44.350;9.222;2024-03-08T00:27:33;10.10;;;5.05;;
32323;SDS011;25666;44.350;9.222;2024-03-08T00:29:59;10.50;;;4.50;;
32323;SDS011;25666;44.350;9.222;2024-03-08T00:32:25;7.80;;;5.25;;
32323;SDS011;25666;44.350;9.222;2024-03-08T00:34:52;10.80;;;5.57;;
32323;SDS011;25666;44.350;9.222;2024-03-08T00:37:21;12.23;;;5.85;;
32323;SDS011;25666;44.350;9.222;2024-03-08T00:39:47;13.63;;;5.78;;
32323;SDS011;25666;44.350;9.222;2024-03-08T00:42:14;10.02;;;5.43;;
32323;SDS011;25666;44.350;9.222;2024-03-08T00:44:40;9.35;;;5.03;;
32323;SDS011;25666;44.350;9.222;2024-03-08T00:47:06;11.93;;;5.93;;
32323;SDS011;25666;44.350;9.222;2024-03-08T00:49:31;13.52;;;4.75;;
32323;SDS011;25666;44.350;9.222;2024-03-08T00:51:57;9.25;;;4.97;;
32323;SDS011;25666;44.350;9.222;2024-03-08T00:54:22;12.52;;;4.88;;
32323;SDS011;25666;44.350;9.222;2024-03-08T00:56:48;7.00;;;4.15;;
32323;SDS011;25666;44.350;9.222;2024-03-08T00:59:14;6.57;;;4.82;;
32323;SDS011;25666;44.350;9.222;2024-03-08T01:01:40;6.55;;;4.07;;
32323;SDS011;25666;44.350;9.222;2024-03-08T01:04:05;8.20;;;4.03;;
32323;SDS011;25666;44.350;9.222;2024-03-08T01:06:33;9.52;;;4.65;;
32323;SDS011;25666;44.350;9.222;2024-03-08T01:08:59;11.35;;;4.75;;
32323;SDS011;25666;44.350;9.222;2024-03-08T01:11:24;11.55;;;5.38;;
32323;SDS011;25666;44.350;9.222;2024-03-08T01:13:50;7.88;;;4.68;;
32323;SDS011;25666;44.350;9.222;2024-03-08T01:16:16;13.68;;;4.65;;
32323;SDS011;25666;44.350;9.222;2024-03-08T01:18:42;9.07;;;5.15;;
32323;SDS011;25666;44.350;9.222;2024-03-08T01:21:08;10.57;;;5.65;;
32323;SDS011;25666;44.350;9.222;2024-03-08T01:23:34;9.38;;;3.70;;
32323;SDS011;25666;44.350;9.222;2024-03-08T01:26:00;6.95;;;4.00;;
32323;SDS011;25666;44.350;9.222;2024-03-08T01:28:27;7.07;;;3.70;;
32323;SDS011;25666;44.350;9.222;2024-03-08T01:30:53;5.97;;;3.67;;
32323;SDS011;25666;44.350;9.222;2024-03-08T01:33:25;10.27;;;4.40;;
32323;SDS011;25666;44.350;9.222;2024-03-08T01:35:52;8.35;;;4.10;;
32323;SDS011;25666;44.350;9.222;2024-03-08T01:38:18;7.85;;;4.25;;
32323;SDS011;25666;44.350;9.222;2024-03-08T01:40:44;7.78;;;3.80;;
32323;SDS011;25666;44.350;9.222;2024-03-08T01:45:45;12.95;;;3.83;;
32323;SDS011;25666;44.350;9.222;2024-03-08T01:48:11;10.00;;;4.30;;
32323;SDS011;25666;44.350;9.222;2024-03-08T01:50:37;6.80;;;4.03;;
32323;SDS011;25666;44.350;9.222;2024-03-08T01:53:04;5.60;;;4.03;;
32323;SDS011;25666;44.350;9.222;2024-03-08T01:55:31;7.78;;;4.65;;
32323;SDS011;25666;44.350;9.222;2024-03-08T01:57:57;10.57;;;3.85;;
32323;SDS011;25666;44.350;9.222;2024-03-08T02:00:24;9.45;;;3.78;;
32323;SDS011;25666;44.350;9.222;2024-03-08T02:02:51;12.18;;;4.22;;
32323;SDS011;25666;44.350;9.222;2024-03-08T02:05:19;7.10;;;3.50;;
32323;SDS011;25666;44.350;9.222;2024-03-08T02:07:46;6.45;;;3.17;;
32323;SDS011;25666;44.350;9.222;2024-03-08T02:10:12;10.65;;;3.40;;
32323;SDS011;25666;44.350;9.222;2024-03-08T02:12:38;9.85;;;3.63;;
32323;SDS011;25666;44.350;9.222;2024-03-08T02:15:04;13.25;;;3.50;;
32323;SDS011;25666;44.350;9.222;2024-03-08T02:17:31;8.55;;;3.78;;
32323;SDS011;25666;44.350;9.222;2024-03-08T02:19:58;9.65;;;3.22;;
32323;SDS011;25666;44.350;9.222;2024-03-08T02:22:26;5.25;;;3.67;;
32323;SDS011;25666;44.350;9.222;2024-03-08T02:24:54;5.68;;;3.22;;
32323;SDS011;25666;44.350;9.222;2024-03-08T02:27:23;6.88;;;3.25;;
32323;SDS011;25666;44.350;9.222;2024-03-08T02:29:56;8.43;;;3.55;;
32323;SDS011;25666;44.350;9.222;2024-03-08T02:32:22;4.43;;;2.95;;
32323;SDS011;25666;44.350;9.222;2024-03-08T02:34:48;7.22;;;3.47;;
32323;SDS011;25666;44.350;9.222;2024-03-08T02:37:14;13.05;;;3.33;;
32323;SDS011;25666;44.350;9.222;2024-03-08T02:39:40;5.32;;;2.90;;
32323;SDS011;25666;44.350;9.222;2024-03-08T02:42:06;6.40;;;3.20;;
32323;SDS011;25666;44.350;9.222;2024-03-08T02:44:32;4.25;;;3.13;;
32323;SDS011;25666;44.350;9.222;2024-03-08T02:46:58;5.93;;;3.72;;
32323;SDS011;25666;44.350;9.222;2024-03-08T02:49:25;8.45;;;2.90;;
32323;SDS011;25666;44.350;9.222;2024-03-08T02:51:52;6.22;;;2.88;;
32323;SDS011;25666;44.350;9.222;2024-03-08T02:54:18;4.00;;;2.65;;
32323;SDS011;25666;44.350;9.222;2024-03-08T02:56:44;6.82;;;2.55;;
32323;SDS011;25666;44.350;9.222;2024-03-08T02:59:11;14.85;;;3.20;;
32323;SDS011;25666;44.350;9.222;2024-03-08T03:01:37;4.20;;;2.65;;
32323;SDS011;25666;44.350;9.222;2024-03-08T03:04:03;6.72;;;3.17;;
32323;SDS011;25666;44.350;9.222;2024-03-08T03:06:29;4.70;;;3.33;;
32323;SDS011;25666;44.350;9.222;2024-03-08T03:08:54;6.43;;;3.65;;
32323;SDS011;25666;44.350;9.222;2024-03-08T03:11:22;7.22;;;3.72;;
32323;SDS011;25666;44.350;9.222;2024-03-08T03:13:51;10.70;;;3.42;;
32323;SDS011;25666;44.350;9.222;2024-03-08T03:16:17;7.15;;;2.78;;
32323;SDS011;25666;44.350;9.222;2024-03-08T03:18:45;5.05;;;2.65;;
32323;SDS011;25666;44.350;9.222;2024-03-08T03:21:11;7.35;;;3.05;;
32323;SDS011;25666;44.350;9.222;2024-03-08T03:23:38;8.60;;;3.38;;
32323;SDS011;25666;44.350;9.222;2024-03-08T03:26:05;4.57;;;2.90;;
32323;SDS011;25666;44.350;9.222;2024-03-08T03:28:37;6.40;;;2.83;;
32323;SDS011;25666;44.350;9.222;2024-03-08T03:31:10;5.70;;;2.80;;
32323;SDS011;25666;44.350;9.222;2024-03-08T03:33:39;7.45;;;2.50;;
32323;SDS011;25666;44.350;9.222;2024-03-08T03:36:05;6.07;;;2.58;;
32323;SDS011;25666;44.350;9.222;2024-03-08T03:38:31;8.25;;;3.10;;
32323;SDS011;25666;44.350;9.222;2024-03-08T03:40:57;6.53;;;3.17;;
32323;SDS011;25666;44.350;9.222;2024-03-08T03:43:29;6.75;;;2.58;;
32323;SDS011;25666;44.350;9.222;2024-03-08T03:45:54;7.10;;;3.00;;
32323;SDS011;25666;44.350;9.222;2024-03-08T03:48:20;6.65;;;3.00;;
32323;SDS011;25666;44.350;9.222;2024-03-08T03:50:46;5.47;;;2.75;;
32323;SDS011;25666;44.350;9.222;2024-03-08T03:53:12;6.97;;;2.90;;
32323;SDS011;25666;44.350;9.222;2024-03-08T03:55:38;4.43;;;2.63;;
32323;SDS011;25666;44.350;9.222;2024-03-08T03:58:04;7.85;;;2.80;;
32323;SDS011;25666;44.350;9.222;2024-03-08T04:00:29;5.60;;;2.25;;
32323;SDS011;25666;44.350;9.222;2024-03-08T04:02:55;7.30;;;2.55;;
32323;SDS011;25666;44.350;9.222;2024-03-08T04:05:24;3.83;;;2.50;;
32323;SDS011;25666;44.350;9.222;2024-03-08T04:07:49;2.47;;;2.28;;
32323;SDS011;25666;44.350;9.222;2024-03-08T04:10:15;8.88;;;2.70;;
32323;SDS011;25666;44.350;9.222;2024-03-08T04:12:40;3.85;;;2.60;;
32323;SDS011;25666;44.350;9.222;2024-03-08T04:15:06;3.42;;;2.63;;
32323;SDS011;25666;44.350;9.222;2024-03-08T04:17:32;5.55;;;2.70;;
32323;SDS011;25666;44.350;9.222;2024-03-08T04:20:02;3.97;;;2.72;;
32323;SDS011;25666;44.350;9.222;2024-03-08T04:22:34;4.95;;;3.20;;
32323;SDS011;25666;44.350;9.222;2024-03-08T04:25:01;7.07;;;3.08;;
32323;SDS011;25666;44.350;9.222;2024-03-08T04:27:27;7.57;;;2.90;;
32323;SDS011;25666;44.350;9.222;2024-03-08T04:29:52;4.65;;;2.88;;
32323;SDS011;25666;44.350;9.222;2024-03-08T04:32:18;5.28;;;2.53;;
32323;SDS011;25666;44.350;9.222;2024-03-08T04:34:43;6.80;;;3.10;;
32323;SDS011;25666;44.350;9.222;2024-03-08T04:37:09;7.38;;;2.70;;
32323;SDS011;25666;44.350;9.222;2024-03-08T04:39:38;5.50;;;2.97;;
32323;SDS011;25666;44.350;9.222;2024-03-08T04:42:04;8.63;;;3.22;;
32323;SDS011;25666;44.350;9.222;2024-03-08T04:44:35;4.43;;;2.70;;
32323;SDS011;25666;44.350;9.222;2024-03-08T04:47:02;6.28;;;2.90;;
32323;SDS011;25666;44.350;9.222;2024-03-08T04:49:29;5.18;;;2.78;;
32323;SDS011;25666;44.350;9.222;2024-03-08T04:51:54;9.38;;;4.10;;
32323;SDS011;25666;44.350;9.222;2024-03-08T04:54:20;16.90;;;3.65;;
32323;SDS011;25666;44.350;9.222;2024-03-08T04:56:45;7.28;;;3.03;;
32323;SDS011;25666;44.350;9.222;2024-03-08T04:59:11;3.38;;;2.75;;
32323;SDS011;25666;44.350;9.222;2024-03-08T05:01:36;7.13;;;3.22;;
32323;SDS011;25666;44.350;9.222;2024-03-08T05:04:03;5.32;;;2.70;;
32323;SDS011;25666;44.350;9.222;2024-03-08T05:06:29;8.82;;;4.32;;
32323;SDS011;25666;44.350;9.222;2024-03-08T05:08:55;5.40;;;2.92;;
32323;SDS011;25666;44.350;9.222;2024-03-08T05:11:21;8.88;;;3.03;;
32323;SDS011;25666;44.350;9.222;2024-03-08T05:13:46;5.40;;;3.42;;
32323;SDS011;25666;44.350;9.222;2024-03-08T05:16:12;4.05;;;2.90;;
32323;SDS011;25666;44.350;9.222;2024-03-08T05:18:40;4.47;;;2.75;;
32323;SDS011;25666;44.350;9.222;2024-03-08T05:21:07;7.53;;;2.72;;
32323;SDS011;25666;44.350;9.222;2024-03-08T05:23:34;7.15;;;2.65;;
32323;SDS011;25666;44.350;9.222;2024-03-08T05:26:00;7.60;;;3.53;;
32323;SDS011;25666;44.350;9.222;2024-03-08T05:28:26;6.35;;;2.85;;
32323;SDS011;25666;44.350;9.222;2024-03-08T05:30:51;9.35;;;2.90;;
32323;SDS011;25666;44.350;9.222;2024-03-08T05:33:17;8.57;;;2.90;;
32323;SDS011;25666;44.350;9.222;2024-03-08T05:35:44;6.82;;;3.47;;
32323;SDS011;25666;44.350;9.222;2024-03-08T05:38:10;6.97;;;3.13;;
32323;SDS011;25666;44.350;9.222;2024-03-08T05:40:56;4.28;;;3.00;;
32323;SDS011;25666;44.350;9.222;2024-03-08T05:43:22;17.80;;;4.00;;
32323;SDS011;25666;44.350;9.222;2024-03-08T05:45:47;15.68;;;3.40;;
32323;SDS011;25666;44.350;9.222;2024-03-08T05:48:13;10.02;;;3.10;;
32323;SDS011;25666;44.350;9.222;2024-03-08T05:50:39;5.25;;;3.10;;
32323;SDS011;25666;44.350;9.222;2024-03-08T05:53:04;12.02;;;3.83;;
32323;SDS011;25666;44.350;9.222;2024-03-08T05:55:32;5.03;;;3.22;;
32323;SDS011;25666;44.350;9.222;2024-03-08T05:58:01;8.35;;;3.10;;
32323;SDS011;25666;44.350;9.222;2024-03-08T06:00:27;9.32;;;3.30;;
32323;SDS011;25666;44.350;9.222;2024-03-08T06:02:53;11.32;;;3.35;;
32323;SDS011;25666;44.350;9.222;2024-03-08T06:05:18;7.53;;;3.60;;
32323;SDS011;25666;44.350;9.222;2024-03-08T06:07:44;5.93;;;3.20;;
32323;SDS011;25666;44.350;9.222;2024-03-08T06:10:10;7.57;;;3.58;;
32323;SDS011;25666;44.350;9.222;2024-03-08T06:12:37;9.27;;;3.10;;
32323;SDS011;25666;44.350;9.222;2024-03-08T06:15:09;4.63;;;3.22;;
32323;SDS011;25666;44.350;9.222;2024-03-08T06:17:35;10.73;;;3.72;;
32323;SDS011;25666;44.350;9.222;2024-03-08T06:20:02;8.23;;;3.10;;
32323;SDS011;25666;44.350;9.222;2024-03-08T06:22:28;6.18;;;3.20;;
32323;SDS011;25666;44.350;9.222;2024-03-08T06:24:55;6.57;;;2.60;;
32323;SDS011;25666;44.350;9.222;2024-03-08T06:27:24;12.35;;;2.83;;
32323;SDS011;25666;44.350;9.222;2024-03-08T06:29:50;2.50;;;2.13;;
32323;SDS011;25666;44.350;9.222;2024-03-08T06:32:15;2.33;;;1.50;;
32323;SDS011;25666;44.350;9.222;2024-03-08T06:34:41;13.43;;;2.78;;
32323;SDS011;25666;44.350;9.222;2024-03-08T06:37:06;5.28;;;1.60;;
32323;SDS011;25666;44.350;9.222;2024-03-08T06:39:32;5.43;;;1.65;;
32323;SDS011;25666;44.350;9.222;2024-03-08T06:42:01;2.72;;;2.10;;
32323;SDS011;25666;44.350;9.222;2024-03-08T06:44:26;4.18;;;1.70;;
32323;SDS011;25666;44.350;9.222;2024-03-08T06:46:52;9.10;;;1.75;;
32323;SDS011;25666;44.350;9.222;2024-03-08T06:49:17;13.50;;;2.47;;
32323;SDS011;25666;44.350;9.222;2024-03-08T06:51:46;11.43;;;2.65;;
32323;SDS011;25666;44.350;9.222;2024-03-08T06:54:11;11.57;;;4.25;;
32323;SDS011;25666;44.350;9.222;2024-03-08T06:56:37;9.02;;;2.72;;
32323;SDS011;25666;44.350;9.222;2024-03-08T06:59:03;11.98;;;2.40;;
32323;SDS011;25666;44.350;9.222;2024-03-08T07:01:29;11.90;;;2.47;;
32323;SDS011;25666;44.350;9.222;2024-03-08T07:03:59;8.65;;;2.13;;
32323;SDS011;25666;44.350;9.222;2024-03-08T07:06:27;7.72;;;2.35;;
32323;SDS011;25666;44.350;9.222;2024-03-08T07:08:53;11.23;;;2.47;;
32323;SDS011;25666;44.350;9.222;2024-03-08T07:11:19;9.45;;;2.67;;
32323;SDS011;25666;44.350;9.222;2024-03-08T07:13:45;12.13;;;4.63;;
32323;SDS011;25666;44.350;9.222;2024-03-08T07:16:11;7.00;;;3.03;;
32323;SDS011;25666;44.350;9.222;2024-03-08T07:18:37;6.43;;;2.80;;
32323;SDS011;25666;44.350;9.222;2024-03-08T07:21:08;5.35;;;2.30;;
32323;SDS011;25666;44.350;9.222;2024-03-08T07:23:35;8.77;;;2.45;;
32323;SDS011;25666;44.350;9.222;2024-03-08T07:26:39;11.07;;;2.50;;
32323;SDS011;25666;44.350;9.222;2024-03-08T07:29:05;10.32;;;3.03;;
32323;SDS011;25666;44.350;9.222;2024-03-08T07:31:30;11.95;;;6.13;;
32323;SDS011;25666;44.350;9.222;2024-03-08T07:34:02;6.50;;;3.30;;
32323;SDS011;25666;44.350;9.222;2024-03-08T07:36:28;6.75;;;3.30;;
32323;SDS011;25666;44.350;9.222;2024-03-08T07:38:54;11.57;;;3.33;;
32323;SDS011;25666;44.350;9.222;2024-03-08T07:41:19;21.40;;;4.78;;
32323;SDS011;25666;44.350;9.222;2024-03-08T07:43:45;12.73;;;5.22;;
32323;SDS011;25666;44.350;9.222;2024-03-08T07:46:10;15.75;;;5.45;;
32323;SDS011;25666;44.350;9.222;2024-03-08T07:48:36;18.20;;;5.50;;
32323;SDS011;25666;44.350;9.222;2024-03-08T07:51:03;16.40;;;5.18;;
32323;SDS011;25666;44.350;9.222;2024-03-08T07:53:29;18.02;;;5.20;;
32323;SDS011;25666;44.350;9.222;2024-03-08T07:55:55;18.42;;;5.40;;
32323;SDS011;25666;44.350;9.222;2024-03-08T07:58:20;16.13;;;4.63;;
32323;SDS011;25666;44.350;9.222;2024-03-08T08:00:46;13.15;;;5.22;;
32323;SDS011;25666;44.350;9.222;2024-03-08T08:03:11;14.45;;;4.85;;
32323;SDS011;25666;44.350;9.222;2024-03-08T08:05:37;13.85;;;4.68;;
32323;SDS011;25666;44.350;9.222;2024-03-08T08:08:13;11.35;;;4.53;;
32323;SDS011;25666;44.350;9.222;2024-03-08T08:10:38;10.77;;;4.22;;
32323;SDS011;25666;44.350;9.222;2024-03-08T08:13:04;17.00;;;4.30;;
32323;SDS011;25666;44.350;9.222;2024-03-08T08:15:29;14.35;;;3.95;;
32323;SDS011;25666;44.350;9.222;2024-03-08T08:17:55;12.52;;;4.38;;
32323;SDS011;25666;44.350;9.222;2024-03-08T08:20:21;18.58;;;4.85;;
32323;SDS011;25666;44.350;9.222;2024-03-08T08:22:48;20.17;;;5.47;;
32323;SDS011;25666;44.350;9.222;2024-03-08T08:25:14;34.13;;;5.65;;
32323;SDS011;25666;44.350;9.222;2024-03-08T08:27:40;23.60;;;5.78;;
32323;SDS011;25666;44.350;9.222;2024-03-08T08:30:07;13.50;;;4.88;;
32323;SDS011;25666;44.350;9.222;2024-03-08T08:32:34;22.88;;;4.28;;
32323;SDS011;25666;44.350;9.222;2024-03-08T08:35:01;8.43;;;3.10;;
32323;SDS011;25666;44.350;9.222;2024-03-08T08:37:27;10.30;;;2.90;;
32323;SDS011;25666;44.350;9.222;2024-03-08T08:39:53;4.70;;;2.85;;
32323;SDS011;25666;44.350;9.222;2024-03-08T08:42:19;5.38;;;2.55;;
32323;SDS011;25666;44.350;9.222;2024-03-08T08:44:45;6.35;;;2.30;;
32323;SDS011;25666;44.350;9.222;2024-03-08T08:47:11;7.70;;;2.22;;
32323;SDS011;25666;44.350;9.222;2024-03-08T08:49:38;11.50;;;3.15;;
32323;SDS011;25666;44.350;9.222;2024-03-08T08:52:03;3.80;;;2.25;;
32323;SDS011;25666;44.350;9.222;2024-03-08T08:54:29;5.43;;;2.22;;
32323;SDS011;25666;44.350;9.222;2024-03-08T08:56:55;4.07;;;2.00;;
32323;SDS011;25666;44.350;9.222;2024-03-08T08:59:20;4.25;;;1.83;;
32323;SDS011;25666;44.350;9.222;2024-03-08T09:01:48;2.17;;;1.90;;
32323;SDS011;25666;44.350;9.222;2024-03-08T09:04:13;7.70;;;2.70;;
32323;SDS011;25666;44.350;9.222;2024-03-08T09:06:39;8.90;;;3.00;;
32323;SDS011;25666;44.350;9.222;2024-03-08T09:09:07;8.10;;;1.92;;
32323;SDS011;25666;44.350;9.222;2024-03-08T09:11:38;8.75;;;1.80;;
32323;SDS011;25666;44.350;9.222;2024-03-08T09:14:06;2.72;;;1.80;;
32323;SDS011;25666;44.350;9.222;2024-03-08T09:16:32;7.13;;;2.00;;
32323;SDS011;25666;44.350;9.222;2024-03-08T09:18:58;3.05;;;1.92;;
32323;SDS011;25666;44.350;9.222;2024-03-08T09:21:24;3.17;;;2.30;;
32323;SDS011;25666;44.350;9.222;2024-03-08T09:23:51;7.30;;;1.83;;
32323;SDS011;25666;44.350;9.222;2024-03-08T09:26:17;4.05;;;1.85;;
32323;SDS011;25666;44.350;9.222;2024-03-08T09:28:42;5.38;;;1.60;;
32323;SDS011;25666;44.350;9.222;2024-03-08T09:31:08;8.13;;;1.98;;
32323;SDS011;25666;44.350;9.222;2024-03-08T09:33:34;4.30;;;1.63;;
32323;SDS011;25666;44.350;9.222;2024-03-08T09:35:59;7.88;;;3.00;;
32323;SDS011;25666;44.350;9.222;2024-03-08T09:38:25;5.85;;;1.60;;
32323;SDS011;25666;44.350;9.222;2024-03-08T09:40:52;8.05;;;2.88;;
32323;SDS011;25666;44.350;9.222;2024-03-08T09:43:18;4.60;;;1.92;;
32323;SDS011;25666;44.350;9.222;2024-03-08T09:45:44;3.63;;;1.85;;
32323;SDS011;25666;44.350;9.222;2024-03-08T09:48:11;4.20;;;1.67;;
32323;SDS011;25666;44.350;9.222;2024-03-08T09:50:38;5.45;;;3.67;;
32323;SDS011;25666;44.350;9.222;2024-03-08T09:53:04;2.53;;;2.03;;
32323;SDS011;25666;44.350;9.222;2024-03-08T09:55:34;7.82;;;2.28;;
32323;SDS011;25666;44.350;9.222;2024-03-08T09:58:06;3.28;;;1.50;;
32323;SDS011;25666;44.350;9.222;2024-03-08T10:01:01;6.13;;;1.90;;
32323;SDS011;25666;44.350;9.222;2024-03-08T10:03:30;7.22;;;2.30;;
32323;SDS011;25666;44.350;9.222;2024-03-08T10:05:57;1.90;;;1.60;;
32323;SDS011;25666;44.350;9.222;2024-03-08T10:08:28;8.50;;;2.92;;
32323;SDS011;25666;44.350;9.222;2024-03-08T10:10:55;4.68;;;1.75;;
32323;SDS011;25666;44.350;9.222;2024-03-08T10:13:23;2.78;;;1.92;;
32323;SDS011;25666;44.350;9.222;2024-03-08T10:15:52;2.28;;;1.73;;
32323;SDS011;25666;44.350;9.222;2024-03-08T10:18:17;7.88;;;2.20;;
32323;SDS011;25666;44.350;9.222;2024-03-08T10:20:43;4.10;;;1.98;;
32323;SDS011;25666;44.350;9.222;2024-03-08T10:23:08;3.80;;;2.17;;
32323;SDS011;25666;44.350;9.222;2024-03-08T10:25:35;7.15;;;2.45;;
32323;SDS011;25666;44.350;9.222;2024-03-08T10:28:04;4.10;;;2.30;;
32323;SDS011;25666;44.350;9.222;2024-03-08T10:30:31;4.10;;;1.88;;
32323;SDS011;25666;44.350;9.222;2024-03-08T10:32:57;4.70;;;1.83;;
32323;SDS011;25666;44.350;9.222;2024-03-08T10:35:23;4.32;;;2.15;;
32323;SDS011;25666;44.350;9.222;2024-03-08T10:37:50;3.50;;;1.80;;
32323;SDS011;25666;44.350;9.222;2024-03-08T10:40:27;4.53;;;1.70;;
32323;SDS011;25666;44.350;9.222;2024-03-08T10:42:54;4.50;;;1.88;;
32323;SDS011;25666;44.350;9.222;2024-03-08T10:45:39;4.30;;;2.00;;
32323;SDS011;25666;44.350;9.222;2024-03-08T10:48:11;5.68;;;2.00;;
32323;SDS011;25666;44.350;9.222;2024-03-08T10:50:56;2.67;;;1.45;;
32323;SDS011;25666;44.350;9.222;2024-03-08T10:53:24;2.88;;;2.08;;
32323;SDS011;25666;44.350;9.222;2024-03-08T10:55:56;3.25;;;2.38;;
32323;SDS011;25666;44.350;9.222;2024-03-08T10:58:22;3.67;;;1.63;;
32323;SDS011;25666;44.350;9.222;2024-03-08T11:00:52;5.10;;;2.08;;
32323;SDS011;25666;44.350;9.222;2024-03-08T11:08:48;3.60;;;1.63;;
32323;SDS011;25666;44.350;9.222;2024-03-08T11:11:25;12.25;;;3.08;;
32323;SDS011;25666;44.350;9.222;2024-03-08T11:18:55;5.00;;;2.00;;
32323;SDS011;25666;44.350;9.222;2024-03-08T11:21:29;4.65;;;1.50;;
32323;SDS011;25666;44.350;9.222;2024-03-08T11:24:06;4.90;;;1.83;;
32323;SDS011;25666;44.350;9.222;2024-03-08T11:26:32;4.15;;;1.50;;
32323;SDS011;25666;44.350;9.222;2024-03-08T11:32:06;8.30;;;1.73;;
32323;SDS011;25666;44.350;9.222;2024-03-08T11:34:34;3.00;;;1.50;;
32323;SDS011;25666;44.350;9.222;2024-03-08T11:37:00;5.85;;;1.92;;
32323;SDS011;25666;44.350;9.222;2024-03-08T11:39:26;6.43;;;2.03;;
32323;SDS011;25666;44.350;9.222;2024-03-08T11:41:53;9.20;;;2.97;;
32323;SDS011;25666;44.350;9.222;2024-03-08T11:44:20;3.03;;;2.05;;
32323;SDS011;25666;44.350;9.222;2024-03-08T11:46:46;5.75;;;2.05;;
32323;SDS011;25666;44.350;9.222;2024-03-08T11:49:14;5.10;;;2.15;;
32323;SDS011;25666;44.350;9.222;2024-03-08T11:51:40;8.07;;;2.17;;
32323;SDS011;25666;44.350;9.222;2024-03-08T11:54:10;5.85;;;2.20;;
32323;SDS011;25666;44.350;9.222;2024-03-08T11:56:40;4.15;;;2.10;;
32323;SDS011;25666;44.350;9.222;2024-03-08T11:59:10;3.70;;;2.20;;
32323;SDS011;25666;44.350;9.222;2024-03-08T12:01:38;4.78;;;2.13;;
32323;SDS011;25666;44.350;9.222;2024-03-08T12:04:04;3.08;;;2.20;;
32323;SDS011;25666;44.350;9.222;2024-03-08T12:06:40;4.63;;;2.05;;
32323;SDS011;25666;44.350;9.222;2024-03-08T12:09:12;6.07;;;2.13;;
32323;SDS011;25666;44.350;9.222;2024-03-08T12:11:38;6.22;;;2.55;;
32323;SDS011;25666;44.350;9.222;2024-03-08T12:14:04;4.85;;;2.40;;
32323;SDS011;25666;44.350;9.222;2024-03-08T12:16:31;12.13;;;1.95;;
32323;SDS011;25666;44.350;9.222;2024-03-08T12:18:57;8.30;;;2.10;;
32323;SDS011;25666;44.350;9.222;2024-03-08T12:21:23;5.70;;;2.13;;
32323;SDS011;25666;44.350;9.222;2024-03-08T12:24:14;3.10;;;2.38;;
32323;SDS011;25666;44.350;9.222;2024-03-08T12:26:41;3.40;;;1.67;;
32323;SDS011;25666;44.350;9.222;2024-03-08T12:29:26;3.70;;;1.80;;
32323;SDS011;25666;44.350;9.222;2024-03-08T12:31:58;5.43;;;2.30;;
32323;SDS011;25666;44.350;9.222;2024-03-08T12:34:26;8.45;;;2.47;;
32323;SDS011;25666;44.350;9.222;2024-03-08T12:36:57;3.75;;;1.73;;
32323;SDS011;25666;44.350;9.222;2024-03-08T12:39:23;1.98;;;1.40;;
32323;SDS011;25666;44.350;9.222;2024-03-08T12:41:55;6.03;;;1.75;;
32323;SDS011;25666;44.350;9.222;2024-03-08T12:44:22;5.32;;;1.80;;
32323;SDS011;25666;44.350;9.222;2024-03-08T12:46:48;5.30;;;1.80;;
32323;SDS011;25666;44.350;9.222;2024-03-08T12:49:14;4.75;;;1.75;;
32323;SDS011;25666;44.350;9.222;2024-03-08T12:51:45;4.93;;;2.25;;
32323;SDS011;25666;44.350;9.222;2024-03-08T12:56:42;11.45;;;2.30;;
32323;SDS011;25666;44.350;9.222;2024-03-08T12:59:07;4.18;;;1.85;;
32323;SDS011;25666;44.350;9.222;2024-03-08T13:01:33;4.22;;;1.67;;
32323;SDS011;25666;44.350;9.222;2024-03-08T13:04:02;2.35;;;0.98;;
32323;SDS011;25666;44.350;9.222;2024-03-08T13:06:28;6.88;;;2.10;;
32323;SDS011;25666;44.350;9.222;2024-03-08T13:08:56;3.22;;;1.58;;
32323;SDS011;25666;44.350;9.222;2024-03-08T13:11:23;1.67;;;1.50;;
32323;SDS011;25666;44.350;9.222;2024-03-08T13:13:50;6.13;;;2.08;;
32323;SDS011;25666;44.350;9.222;2024-03-08T13:16:16;8.55;;;2.42;;
32323;SDS011;25666;44.350;9.222;2024-03-08T13:18:43;5.20;;;1.80;;
32323;SDS011;25666;44.350;9.222;2024-03-08T13:21:10;8.20;;;2.33;;
32323;SDS011;25666;44.350;9.222;2024-03-08T13:23:40;6.07;;;2.13;;
32323;SDS011;25666;44.350;9.222;2024-03-08T13:26:11;7.93;;;2.28;;
32323;SDS011;25666;44.350;9.222;2024-03-08T13:28:46;6.13;;;1.80;;
32323;SDS011;25666;44.350;9.222;2024-03-08T13:31:13;5.38;;;2.00;;
32323;SDS011;25666;44.350;9.222;2024-03-08T13:33:40;4.28;;;1.92;;
32323;SDS011;25666;44.350;9.222;2024-03-08T13:36:07;2.30;;;1.52;;
32323;SDS011;25666;44.350;9.222;2024-03-08T13:38:43;2.60;;;1.67;;
32323;SDS011;25666;44.350;9.222;2024-03-08T13:41:12;3.60;;;1.67;;
32323;SDS011;25666;44.350;9.222;2024-03-08T13:43:42;8.18;;;2.22;;
32323;SDS011;25666;44.350;9.222;2024-03-08T13:46:11;4.65;;;2.13;;
32323;SDS011;25666;44.350;9.222;2024-03-08T13:48:37;8.30;;;2.20;;
32323;SDS011;25666;44.350;9.222;2024-03-08T13:51:04;9.35;;;2.40;;
32323;SDS011;25666;44.350;9.222;2024-03-08T13:53:31;5.07;;;2.03;;
32323;SDS011;25666;44.350;9.222;2024-03-08T13:55:57;6.53;;;1.73;;
32323;SDS011;25666;44.350;9.222;2024-03-08T13:58:23;5.15;;;1.63;;
32323;SDS011;25666;44.350;9.222;2024-03-08T14:00:49;2.67;;;1.92;;
32323;SDS011;25666;44.350;9.222;2024-03-08T14:03:16;1.80;;;1.30;;
32323;SDS011;25666;44.350;9.222;2024-03-08T14:05:42;3.08;;;1.90;;
32323;SDS011;25666;44.350;9.222;2024-03-08T14:08:11;3.95;;;1.90;;
32323;SDS011;25666;44.350;9.222;2024-03-08T14:10:37;3.80;;;1.63;;
32323;SDS011;25666;44.350;9.222;2024-03-08T14:13:04;3.63;;;2.03;;
32323;SDS011;25666;44.350;9.222;2024-03-08T14:15:34;3.70;;;1.92;;
32323;SDS011;25666;44.350;9.222;2024-03-08T14:18:00;5.40;;;2.15;;
32323;SDS011;25666;44.350;9.222;2024-03-08T14:20:31;7.30;;;2.63;;
32323;SDS011;25666;44.350;9.222;2024-03-08T14:22:57;4.93;;;2.10;;
32323;SDS011;25666;44.350;9.222;2024-03-08T14:25:23;4.45;;;2.53;;
32323;SDS011;25666;44.350;9.222;2024-03-08T14:27:49;2.35;;;2.15;;
32323;SDS011;25666;44.350;9.222;2024-03-08T14:30:18;4.93;;;1.52;;
32323;SDS011;25666;44.350;9.222;2024-03-08T14:33:07;4.13;;;2.00;;
32323;SDS011;25666;44.350;9.222;2024-03-08T14:35:36;3.95;;;1.83;;
32323;SDS011;25666;44.350;9.222;2024-03-08T14:38:02;4.43;;;2.42;;
32323;SDS011;25666;44.350;9.222;2024-03-08T14:40:27;6.80;;;1.90;;
32323;SDS011;25666;44.350;9.222;2024-03-08T14:42:55;3.88;;;1.83;;
32323;SDS011;25666;44.350;9.222;2024-03-08T14:45:21;11.82;;;2.05;;
32323;SDS011;25666;44.350;9.222;2024-03-08T14:47:49;3.60;;;2.00;;
32323;SDS011;25666;44.350;9.222;2024-03-08T14:50:19;2.40;;;2.10;;
32323;SDS011;25666;44.350;9.222;2024-03-08T14:52:46;8.35;;;2.28;;
32323;SDS011;25666;44.350;9.222;2024-03-08T14:55:14;3.80;;;1.85;;
32323;SDS011;25666;44.350;9.222;2024-03-08T14:57:41;3.63;;;1.40;;
32323;SDS011;25666;44.350;9.222;2024-03-08T15:00:07;5.78;;;2.13;;
32323;SDS011;25666;44.350;9.222;2024-03-08T15:02:41;2.45;;;1.85;;
32323;SDS011;25666;44.350;9.222;2024-03-08T15:05:07;5.47;;;1.73;;